sensor_id;sensor_type;location;lat;lon;timestamp;P1;durP1;ratioP1;P2;durP2;ratioP2
7745;SDS011;3917;42.748;23.278;2022-08-19T00:01:58;12.57;;;4.95;;
7745;SDS011;3917;42.748;23.278;2022-08-19T00:04:30;7.15;;;4.70;;
7745;SDS011;3917;42.748;23.278;2022-08-19T00:10:18;7.43;;;4.82;;
7745;SDS011;3917;42.748;23.278;2022-08-19T00:29:24;5.35;;;4.68;;
7745;SDS011;3917;42.748;23.278;2022-08-19T00:49:19;5.30;;;4.80;;
7745;SDS011;3917;42.748;23.278;2022-08-19T00:51:52;6.88;;;4.90;;
7745;SDS011;3917;42.748;23.278;2022-08-19T00:54:26;8.40;;;5.20;;
7745;SDS011;3917;42.748;23.278;2022-08-19T00:56:53;11.48;;;6.07;;
7745;SDS011;3917;42.748;23.278;2022-08-19T00:59:20;9.80;;;5.50;;
7745;SDS011;3917;42.748;23.278;2022-08-19T01:01:59;10.82;;;5.57;;
7745;SDS011;3917;42.748;23.278;2022-08-19T01:07:37;8.02;;;6.13;;
7745;SDS011;3917;42.748;23.278;2022-08-19T01:10:25;12.95;;;6.28;;
7745;SDS011;3917;42.748;23.278;2022-08-19T01:12:54;10.55;;;6.88;;
7745;SDS011;3917;42.748;23.278;2022-08-19T01:15:25;9.55;;;6.85;;
7745;SDS011;3917;42.748;23.278;2022-08-19T01:17:55;9.65;;;7.13;;
7745;SDS011;3917;42.748;23.278;2022-08-19T01:20:30;10.50;;;6.60;;
7745;SDS011;3917;42.748;23.278;2022-08-19T01:23:08;7.47;;;6.78;;
7745;SDS011;3917;42.748;23.278;2022-08-19T01:25:44;9.82;;;8.23;;
7745;SDS011;3917;42.748;23.278;2022-08-19T01:28:26;8.65;;;7.78;;
7745;SDS011;3917;42.748;23.278;2022-08-19T01:30:56;11.07;;;7.45;;
7745;SDS011;3917;42.748;23.278;2022-08-19T01:33:32;7.97;;;7.28;;
7745;SDS011;3917;42.748;23.278;2022-08-19T01:39:28;10.80;;;6.30;;
7745;SDS011;3917;42.748;23.278;2022-08-19T01:49:14;11.17;;;6.40;;
7745;SDS011;3917;42.748;23.278;2022-08-19T02:12:37;8.52;;;6.85;;
7745;SDS011;3917;42.748;23.278;2022-08-19T02:17:03;9.85;;;7.10;;
7745;SDS011;3917;42.748;23.278;2022-08-19T02:19:11;8.68;;;6.82;;
7745;SDS011;3917;42.748;23.278;2022-08-19T02:21:38;9.05;;;7.00;;
7745;SDS011;3917;42.748;23.278;2022-08-19T02:24:05;10.95;;;7.28;;
7745;SDS011;3917;42.748;23.278;2022-08-19T02:26:37;9.48;;;6.70;;
7745;SDS011;3917;42.748;23.278;2022-08-19T02:31:58;15.82;;;7.70;;
7745;SDS011;3917;42.748;23.278;2022-08-19T02:54:24;10.75;;;7.32;;
7745;SDS011;3917;42.748;23.278;2022-08-19T03:00:56;33.05;;;9.50;;
7745;SDS011;3917;42.748;23.278;2022-08-19T03:03:50;11.80;;;8.65;;
7745;SDS011;3917;42.748;23.278;2022-08-19T03:06:42;15.80;;;9.77;;
7745;SDS011;3917;42.748;23.278;2022-08-19T03:09:14;21.77;;;11.07;;
7745;SDS011;3917;42.748;23.278;2022-08-19T03:25:12;8.13;;;7.38;;
7745;SDS011;3917;42.748;23.278;2022-08-19T03:27:39;9.60;;;8.60;;
7745;SDS011;3917;42.748;23.278;2022-08-19T03:30:07;8.77;;;7.95;;
7745;SDS011;3917;42.748;23.278;2022-08-19T04:09:10;10.23;;;6.80;;
7745;SDS011;3917;42.748;23.278;2022-08-19T04:16:00;9.77;;;6.10;;
7745;SDS011;3917;42.748;23.278;2022-08-19T04:25:12;25.85;;;7.60;;
7745;SDS011;3917;42.748;23.278;2022-08-19T04:27:39;42.55;;;8.27;;
7745;SDS011;3917;42.748;23.278;2022-08-19T04:30:08;32.55;;;7.72;;
7745;SDS011;3917;42.748;23.278;2022-08-19T04:32:36;41.85;;;8.70;;
7745;SDS011;3917;42.748;23.278;2022-08-19T04:35:03;54.35;;;8.18;;
7745;SDS011;3917;42.748;23.278;2022-08-19T04:37:31;34.67;;;7.70;;
7745;SDS011;3917;42.748;23.278;2022-08-19T04:39:58;23.38;;;7.28;;
7745;SDS011;3917;42.748;23.278;2022-08-19T04:49:19;13.85;;;5.78;;
7745;SDS011;3917;42.748;23.278;2022-08-19T04:51:52;13.55;;;5.88;;
7745;SDS011;3917;42.748;23.278;2022-08-19T04:54:21;21.85;;;6.18;;
7745;SDS011;3917;42.748;23.278;2022-08-19T04:56:56;16.80;;;5.75;;
7745;SDS011;3917;42.748;23.278;2022-08-19T04:59:31;8.93;;;5.20;;
7745;SDS011;3917;42.748;23.278;2022-08-19T05:02:00;11.43;;;5.60;;
7745;SDS011;3917;42.748;23.278;2022-08-19T05:04:29;17.17;;;5.78;;
7745;SDS011;3917;42.748;23.278;2022-08-19T05:06:56;28.95;;;6.05;;
7745;SDS011;3917;42.748;23.278;2022-08-19T05:09:24;18.08;;;6.10;;
7745;SDS011;3917;42.748;23.278;2022-08-19T05:11:50;119.05;;;13.55;;
7745;SDS011;3917;42.748;23.278;2022-08-19T05:14:18;135.75;;;14.57;;
7745;SDS011;3917;42.748;23.278;2022-08-19T05:16:46;76.85;;;11.50;;
7745;SDS011;3917;42.748;23.278;2022-08-19T05:19:33;18.48;;;5.57;;
7745;SDS011;3917;42.748;23.278;2022-08-19T05:22:23;23.23;;;6.22;;
7745;SDS011;3917;42.748;23.278;2022-08-19T05:25:01;66.93;;;9.52;;
7745;SDS011;3917;42.748;23.278;2022-08-19T05:27:31;65.70;;;10.63;;
7745;SDS011;3917;42.748;23.278;2022-08-19T05:29:58;112.90;;;14.38;;
7745;SDS011;3917;42.748;23.278;2022-08-19T05:32:26;83.57;;;12.73;;
7745;SDS011;3917;42.748;23.278;2022-08-19T05:34:55;22.85;;;6.60;;
7745;SDS011;3917;42.748;23.278;2022-08-19T05:37:22;40.90;;;8.05;;
7745;SDS011;3917;42.748;23.278;2022-08-19T05:39:51;52.03;;;8.73;;
7745;SDS011;3917;42.748;23.278;2022-08-19T05:42:19;76.40;;;11.23;;
7745;SDS011;3917;42.748;23.278;2022-08-19T05:44:48;88.47;;;11.05;;
7745;SDS011;3917;42.748;23.278;2022-08-19T05:47:16;101.72;;;11.30;;
7745;SDS011;3917;42.748;23.278;2022-08-19T05:50:37;39.65;;;8.02;;
7745;SDS011;3917;42.748;23.278;2022-08-19T05:53:42;103.10;;;11.88;;
7745;SDS011;3917;42.748;23.278;2022-08-19T05:56:15;30.92;;;8.57;;
7745;SDS011;3917;42.748;23.278;2022-08-19T05:58:43;13.07;;;6.38;;
7745;SDS011;3917;42.748;23.278;2022-08-19T06:01:15;21.10;;;6.70;;
7745;SDS011;3917;42.748;23.278;2022-08-19T06:03:45;22.30;;;6.65;;
7745;SDS011;3917;42.748;23.278;2022-08-19T06:06:16;57.15;;;8.93;;
7745;SDS011;3917;42.748;23.278;2022-08-19T06:09:11;13.85;;;5.85;;
7745;SDS011;3917;42.748;23.278;2022-08-19T06:11:45;13.45;;;5.68;;
7745;SDS011;3917;42.748;23.278;2022-08-19T06:14:27;9.90;;;5.00;;
7745;SDS011;3917;42.748;23.278;2022-08-19T06:17:01;12.90;;;6.38;;
7745;SDS011;3917;42.748;23.278;2022-08-19T06:19:31;9.13;;;5.30;;
7745;SDS011;3917;42.748;23.278;2022-08-19T06:22:01;111.80;;;12.13;;
7745;SDS011;3917;42.748;23.278;2022-08-19T06:25:03;9.65;;;4.88;;
7745;SDS011;3917;42.748;23.278;2022-08-19T06:27:39;13.02;;;4.85;;
7745;SDS011;3917;42.748;23.278;2022-08-19T06:30:31;10.48;;;4.13;;
7745;SDS011;3917;42.748;23.278;2022-08-19T06:34:58;13.27;;;4.30;;
7745;SDS011;3917;42.748;23.278;2022-08-19T06:36:31;21.58;;;5.05;;
7745;SDS011;3917;42.748;23.278;2022-08-19T06:39:00;19.55;;;5.63;;
7745;SDS011;3917;42.748;23.278;2022-08-19T06:41:30;65.10;;;8.45;;
7745;SDS011;3917;42.748;23.278;2022-08-19T06:44:09;78.18;;;9.15;;
7745;SDS011;3917;42.748;23.278;2022-08-19T06:46:39;79.45;;;10.43;;
7745;SDS011;3917;42.748;23.278;2022-08-19T06:49:10;16.77;;;5.05;;
7745;SDS011;3917;42.748;23.278;2022-08-19T06:51:42;36.88;;;6.40;;
7745;SDS011;3917;42.748;23.278;2022-08-19T06:54:16;42.08;;;6.78;;
7745;SDS011;3917;42.748;23.278;2022-08-19T06:56:53;12.07;;;4.75;;
7745;SDS011;3917;42.748;23.278;2022-08-19T06:59:34;30.70;;;6.22;;
7745;SDS011;3917;42.748;23.278;2022-08-19T07:02:13;26.10;;;6.05;;
7745;SDS011;3917;42.748;23.278;2022-08-19T07:04:52;19.10;;;4.50;;
7745;SDS011;3917;42.748;23.278;2022-08-19T07:07:25;31.55;;;5.68;;
7745;SDS011;3917;42.748;23.278;2022-08-19T07:10:30;16.33;;;4.43;;
7745;SDS011;3917;42.748;23.278;2022-08-19T07:13:04;15.07;;;4.43;;
7745;SDS011;3917;42.748;23.278;2022-08-19T07:15:39;13.27;;;4.65;;
7745;SDS011;3917;42.748;23.278;2022-08-19T07:18:11;13.20;;;4.25;;
7745;SDS011;3917;42.748;23.278;2022-08-19T07:20:41;24.92;;;5.00;;
7745;SDS011;3917;42.748;23.278;2022-08-19T07:23:13;6.03;;;4.10;;
7745;SDS011;3917;42.748;23.278;2022-08-19T07:26:04;10.80;;;4.00;;
7745;SDS011;3917;42.748;23.278;2022-08-19T07:31:35;20.20;;;4.38;;
7745;SDS011;3917;42.748;23.278;2022-08-19T07:34:03;9.25;;;4.15;;
7745;SDS011;3917;42.748;23.278;2022-08-19T07:36:34;9.32;;;3.65;;
7745;SDS011;3917;42.748;23.278;2022-08-19T07:39:23;10.52;;;3.80;;
7745;SDS011;3917;42.748;23.278;2022-08-19T07:41:52;7.15;;;3.55;;
7745;SDS011;3917;42.748;23.278;2022-08-19T07:44:20;19.40;;;3.63;;
7745;SDS011;3917;42.748;23.278;2022-08-19T07:46:50;12.55;;;3.60;;
7745;SDS011;3917;42.748;23.278;2022-08-19T07:49:37;9.05;;;3.92;;
7745;SDS011;3917;42.748;23.278;2022-08-19T07:52:13;7.20;;;4.10;;
7745;SDS011;3917;42.748;23.278;2022-08-19T07:54:41;9.05;;;3.97;;
7745;SDS011;3917;42.748;23.278;2022-08-19T07:57:08;8.32;;;4.05;;
7745;SDS011;3917;42.748;23.278;2022-08-19T07:59:37;7.00;;;3.72;;
7745;SDS011;3917;42.748;23.278;2022-08-19T08:02:08;9.13;;;4.28;;
7745;SDS011;3917;42.748;23.278;2022-08-19T08:04:41;7.35;;;4.00;;
7745;SDS011;3917;42.748;23.278;2022-08-19T08:07:21;8.85;;;3.80;;
7745;SDS011;3917;42.748;23.278;2022-08-19T08:10:07;4.82;;;3.17;;
7745;SDS011;3917;42.748;23.278;2022-08-19T08:12:39;5.65;;;3.25;;
7745;SDS011;3917;42.748;23.278;2022-08-19T08:15:08;6.63;;;3.53;;
7745;SDS011;3917;42.748;23.278;2022-08-19T08:17:39;7.25;;;3.70;;
7745;SDS011;3917;42.748;23.278;2022-08-19T08:20:06;7.90;;;3.67;;
7745;SDS011;3917;42.748;23.278;2022-08-19T08:22:42;7.00;;;3.95;;
7745;SDS011;3917;42.748;23.278;2022-08-19T08:25:29;7.00;;;3.70;;
7745;SDS011;3917;42.748;23.278;2022-08-19T08:27:57;7.40;;;4.03;;
7745;SDS011;3917;42.748;23.278;2022-08-19T08:30:25;8.32;;;3.75;;
7745;SDS011;3917;42.748;23.278;2022-08-19T08:32:56;6.50;;;3.45;;
7745;SDS011;3917;42.748;23.278;2022-08-19T08:35:37;8.65;;;4.10;;
7745;SDS011;3917;42.748;23.278;2022-08-19T08:38:20;9.48;;;3.85;;
7745;SDS011;3917;42.748;23.278;2022-08-19T08:40:48;9.52;;;3.50;;
7745;SDS011;3917;42.748;23.278;2022-08-19T08:43:35;5.63;;;3.20;;
7745;SDS011;3917;42.748;23.278;2022-08-19T08:46:08;5.60;;;3.80;;
7745;SDS011;3917;42.748;23.278;2022-08-19T08:49:11;8.02;;;3.42;;
7745;SDS011;3917;42.748;23.278;2022-08-19T08:53:26;10.20;;;3.42;;
7745;SDS011;3917;42.748;23.278;2022-08-19T08:55:27;11.80;;;3.47;;
7745;SDS011;3917;42.748;23.278;2022-08-19T08:58:26;6.30;;;4.07;;
7745;SDS011;3917;42.748;23.278;2022-08-19T09:04:20;4.50;;;3.38;;
7745;SDS011;3917;42.748;23.278;2022-08-19T09:09:57;7.97;;;2.63;;
7745;SDS011;3917;42.748;23.278;2022-08-19T09:12:43;7.40;;;3.28;;
7745;SDS011;3917;42.748;23.278;2022-08-19T09:15:30;3.90;;;3.10;;
7745;SDS011;3917;42.748;23.278;2022-08-19T09:18:38;6.50;;;2.75;;
7745;SDS011;3917;42.748;23.278;2022-08-19T09:24:08;4.38;;;2.60;;
7745;SDS011;3917;42.748;23.278;2022-08-19T09:26:38;6.20;;;2.90;;
7745;SDS011;3917;42.748;23.278;2022-08-19T09:31:48;7.60;;;2.38;;
7745;SDS011;3917;42.748;23.278;2022-08-19T09:34:22;4.80;;;2.40;;
7745;SDS011;3917;42.748;23.278;2022-08-19T09:36:50;2.42;;;2.22;;
7745;SDS011;3917;42.748;23.278;2022-08-19T09:39:20;3.72;;;2.15;;
7745;SDS011;3917;42.748;23.278;2022-08-19T09:41:48;6.55;;;2.15;;
7745;SDS011;3917;42.748;23.278;2022-08-19T09:44:16;3.10;;;2.15;;
7745;SDS011;3917;42.748;23.278;2022-08-19T09:46:54;2.23;;;2.10;;
7745;SDS011;3917;42.748;23.278;2022-08-19T09:49:33;5.32;;;2.05;;
7745;SDS011;3917;42.748;23.278;2022-08-19T09:52:04;8.95;;;2.00;;
7745;SDS011;3917;42.748;23.278;2022-08-19T09:54:32;1.98;;;1.73;;
7745;SDS011;3917;42.748;23.278;2022-08-19T09:57:08;6.07;;;1.98;;
7745;SDS011;3917;42.748;23.278;2022-08-19T09:59:35;9.07;;;2.10;;
7745;SDS011;3917;42.748;23.278;2022-08-19T10:02:11;6.22;;;2.20;;
7745;SDS011;3917;42.748;23.278;2022-08-19T10:05:06;3.78;;;2.50;;
7745;SDS011;3917;42.748;23.278;2022-08-19T10:07:54;6.55;;;2.42;;
7745;SDS011;3917;42.748;23.278;2022-08-19T10:13:08;2.53;;;2.33;;
7745;SDS011;3917;42.748;23.278;2022-08-19T10:15:35;3.35;;;3.05;;
7745;SDS011;3917;42.748;23.278;2022-08-19T10:18:21;3.25;;;2.10;;
7745;SDS011;3917;42.748;23.278;2022-08-19T10:21:07;5.32;;;2.72;;
7745;SDS011;3917;42.748;23.278;2022-08-19T10:23:45;7.38;;;2.40;;
7745;SDS011;3917;42.748;23.278;2022-08-19T10:26:21;4.65;;;2.50;;
7745;SDS011;3917;42.748;23.278;2022-08-19T10:28:52;2.63;;;2.10;;
7745;SDS011;3917;42.748;23.278;2022-08-19T10:31:27;4.13;;;2.60;;
7745;SDS011;3917;42.748;23.278;2022-08-19T10:33:56;4.65;;;2.90;;
7745;SDS011;3917;42.748;23.278;2022-08-19T10:36:24;3.10;;;2.90;;
7745;SDS011;3917;42.748;23.278;2022-08-19T10:38:56;7.18;;;2.83;;
7745;SDS011;3917;42.748;23.278;2022-08-19T10:41:42;7.03;;;3.35;;
7745;SDS011;3917;42.748;23.278;2022-08-19T10:44:40;5.18;;;2.53;;
7745;SDS011;3917;42.748;23.278;2022-08-19T10:47:13;5.70;;;2.80;;
7745;SDS011;3917;42.748;23.278;2022-08-19T10:50:07;7.30;;;2.90;;
7745;SDS011;3917;42.748;23.278;2022-08-19T10:53:18;4.10;;;2.80;;
7745;SDS011;3917;42.748;23.278;2022-08-19T10:56:25;4.05;;;2.88;;
7745;SDS011;3917;42.748;23.278;2022-08-19T10:59:25;4.53;;;2.80;;
7745;SDS011;3917;42.748;23.278;2022-08-19T11:05:58;4.25;;;3.08;;
7745;SDS011;3917;42.748;23.278;2022-08-19T11:08:28;4.72;;;2.75;;
7745;SDS011;3917;42.748;23.278;2022-08-19T11:11:04;10.88;;;3.03;;
7745;SDS011;3917;42.748;23.278;2022-08-19T11:13:34;6.03;;;3.63;;
7745;SDS011;3917;42.748;23.278;2022-08-19T11:16:23;6.05;;;3.13;;
7745;SDS011;3917;42.748;23.278;2022-08-19T11:21:39;5.65;;;3.45;;
7745;SDS011;3917;42.748;23.278;2022-08-19T11:24:15;4.18;;;2.95;;
7745;SDS011;3917;42.748;23.278;2022-08-19T11:27:00;9.02;;;2.70;;
7745;SDS011;3917;42.748;23.278;2022-08-19T11:29:35;5.03;;;2.90;;
7745;SDS011;3917;42.748;23.278;2022-08-19T11:35:12;4.60;;;3.03;;
7745;SDS011;3917;42.748;23.278;2022-08-19T11:38:16;3.20;;;2.97;;
7745;SDS011;3917;42.748;23.278;2022-08-19T11:46:16;5.55;;;2.97;;
7745;SDS011;3917;42.748;23.278;2022-08-19T11:48:43;3.55;;;2.83;;
7745;SDS011;3917;42.748;23.278;2022-08-19T11:51:16;7.07;;;3.08;;
7745;SDS011;3917;42.748;23.278;2022-08-19T11:53:45;15.95;;;3.42;;
7745;SDS011;3917;42.748;23.278;2022-08-19T11:56:15;7.13;;;3.58;;
7745;SDS011;3917;42.748;23.278;2022-08-19T11:58:45;5.15;;;2.72;;
7745;SDS011;3917;42.748;23.278;2022-08-19T12:01:13;8.60;;;3.25;;
7745;SDS011;3917;42.748;23.278;2022-08-19T12:06:29;3.50;;;2.97;;
7745;SDS011;3917;42.748;23.278;2022-08-19T12:09:00;6.15;;;2.85;;
7745;SDS011;3917;42.748;23.278;2022-08-19T12:11:35;6.18;;;2.97;;
7745;SDS011;3917;42.748;23.278;2022-08-19T12:14:13;6.70;;;3.22;;
7745;SDS011;3917;42.748;23.278;2022-08-19T12:16:43;7.50;;;3.10;;
7745;SDS011;3917;42.748;23.278;2022-08-19T12:19:13;4.15;;;3.17;;
7745;SDS011;3917;42.748;23.278;2022-08-19T12:21:40;4.63;;;2.90;;
7745;SDS011;3917;42.748;23.278;2022-08-19T12:24:07;8.40;;;3.38;;
7745;SDS011;3917;42.748;23.278;2022-08-19T12:26:34;3.83;;;3.17;;
7745;SDS011;3917;42.748;23.278;2022-08-19T12:29:04;7.95;;;3.38;;
7745;SDS011;3917;42.748;23.278;2022-08-19T12:31:39;7.68;;;2.83;;
7745;SDS011;3917;42.748;23.278;2022-08-19T12:34:06;5.95;;;3.40;;
7745;SDS011;3917;42.748;23.278;2022-08-19T12:36:34;6.32;;;3.45;;
7745;SDS011;3917;42.748;23.278;2022-08-19T12:39:01;6.55;;;3.25;;
7745;SDS011;3917;42.748;23.278;2022-08-19T12:41:29;7.40;;;3.17;;
7745;SDS011;3917;42.748;23.278;2022-08-19T12:43:56;6.18;;;3.10;;
7745;SDS011;3917;42.748;23.278;2022-08-19T12:46:23;7.82;;;3.65;;
7745;SDS011;3917;42.748;23.278;2022-08-19T12:48:50;3.10;;;2.80;;
7745;SDS011;3917;42.748;23.278;2022-08-19T12:51:18;3.30;;;2.88;;
7745;SDS011;3917;42.748;23.278;2022-08-19T12:53:47;4.85;;;2.95;;
7745;SDS011;3917;42.748;23.278;2022-08-19T12:56:14;6.63;;;3.53;;
7745;SDS011;3917;42.748;23.278;2022-08-19T12:58:42;5.75;;;3.20;;
7745;SDS011;3917;42.748;23.278;2022-08-19T13:01:10;8.70;;;3.67;;
7745;SDS011;3917;42.748;23.278;2022-08-19T13:03:38;4.65;;;3.08;;
7745;SDS011;3917;42.748;23.278;2022-08-19T13:06:05;6.75;;;3.00;;
7745;SDS011;3917;42.748;23.278;2022-08-19T13:08:33;3.53;;;3.15;;
7745;SDS011;3917;42.748;23.278;2022-08-19T13:11:07;7.75;;;3.03;;
7745;SDS011;3917;42.748;23.278;2022-08-19T13:13:37;4.72;;;2.95;;
7745;SDS011;3917;42.748;23.278;2022-08-19T13:16:06;6.30;;;3.35;;
7745;SDS011;3917;42.748;23.278;2022-08-19T13:18:33;5.85;;;2.95;;
7745;SDS011;3917;42.748;23.278;2022-08-19T13:21:01;8.77;;;3.33;;
7745;SDS011;3917;42.748;23.278;2022-08-19T13:23:30;5.18;;;3.30;;
7745;SDS011;3917;42.748;23.278;2022-08-19T13:25:57;6.78;;;3.28;;
7745;SDS011;3917;42.748;23.278;2022-08-19T13:28:26;6.32;;;3.03;;
7745;SDS011;3917;42.748;23.278;2022-08-19T13:31:14;4.82;;;3.00;;
7745;SDS011;3917;42.748;23.278;2022-08-19T13:34:00;7.22;;;3.50;;
7745;SDS011;3917;42.748;23.278;2022-08-19T13:36:27;12.48;;;3.60;;
7745;SDS011;3917;42.748;23.278;2022-08-19T13:38:54;14.45;;;3.70;;
7745;SDS011;3917;42.748;23.278;2022-08-19T13:41:21;5.53;;;3.10;;
7745;SDS011;3917;42.748;23.278;2022-08-19T13:43:50;9.77;;;3.65;;
7745;SDS011;3917;42.748;23.278;2022-08-19T13:46:17;6.05;;;3.42;;
7745;SDS011;3917;42.748;23.278;2022-08-19T13:48:45;7.70;;;3.30;;
7745;SDS011;3917;42.748;23.278;2022-08-19T13:51:13;11.60;;;3.22;;
7745;SDS011;3917;42.748;23.278;2022-08-19T13:53:41;11.23;;;3.75;;
7745;SDS011;3917;42.748;23.278;2022-08-19T13:56:10;10.35;;;3.20;;
7745;SDS011;3917;42.748;23.278;2022-08-19T13:58:41;6.15;;;2.88;;
7745;SDS011;3917;42.748;23.278;2022-08-19T14:01:10;6.50;;;3.20;;
7745;SDS011;3917;42.748;23.278;2022-08-19T14:03:37;4.93;;;3.30;;
7745;SDS011;3917;42.748;23.278;2022-08-19T14:06:05;7.63;;;3.42;;
7745;SDS011;3917;42.748;23.278;2022-08-19T14:08:32;5.50;;;3.17;;
7745;SDS011;3917;42.748;23.278;2022-08-19T14:10:58;7.70;;;3.42;;
7745;SDS011;3917;42.748;23.278;2022-08-19T14:13:25;5.60;;;3.50;;
7745;SDS011;3917;42.748;23.278;2022-08-19T14:15:52;3.67;;;3.33;;
7745;SDS011;3917;42.748;23.278;2022-08-19T14:18:21;5.00;;;3.35;;
7745;SDS011;3917;42.748;23.278;2022-08-19T14:20:50;9.70;;;3.13;;
7745;SDS011;3917;42.748;23.278;2022-08-19T14:23:17;5.90;;;3.15;;
7745;SDS011;3917;42.748;23.278;2022-08-19T14:25:45;4.15;;;2.97;;
7745;SDS011;3917;42.748;23.278;2022-08-19T14:28:12;11.10;;;3.67;;
7745;SDS011;3917;42.748;23.278;2022-08-19T14:30:39;12.15;;;3.35;;
7745;SDS011;3917;42.748;23.278;2022-08-19T14:33:06;5.20;;;2.85;;
7745;SDS011;3917;42.748;23.278;2022-08-19T14:35:36;6.32;;;3.25;;
7745;SDS011;3917;42.748;23.278;2022-08-19T14:38:03;4.18;;;3.08;;
7745;SDS011;3917;42.748;23.278;2022-08-19T14:40:31;4.28;;;3.55;;
7745;SDS011;3917;42.748;23.278;2022-08-19T14:43:00;10.93;;;4.22;;
7745;SDS011;3917;42.748;23.278;2022-08-19T14:45:29;7.95;;;4.05;;
7745;SDS011;3917;42.748;23.278;2022-08-19T14:47:57;5.00;;;3.50;;
7745;SDS011;3917;42.748;23.278;2022-08-19T14:50:25;7.15;;;3.40;;
7745;SDS011;3917;42.748;23.278;2022-08-19T14:52:58;4.20;;;3.80;;
7745;SDS011;3917;42.748;23.278;2022-08-19T14:55:28;8.38;;;4.05;;
7745;SDS011;3917;42.748;23.278;2022-08-19T14:57:56;11.82;;;4.63;;
7745;SDS011;3917;42.748;23.278;2022-08-19T15:00:24;10.25;;;3.92;;
7745;SDS011;3917;42.748;23.278;2022-08-19T15:02:51;7.97;;;3.90;;
7745;SDS011;3917;42.748;23.278;2022-08-19T15:05:19;4.30;;;3.88;;
7745;SDS011;3917;42.748;23.278;2022-08-19T15:07:46;3.90;;;3.60;;
7745;SDS011;3917;42.748;23.278;2022-08-19T15:10:15;9.43;;;3.45;;
7745;SDS011;3917;42.748;23.278;2022-08-19T15:12:42;5.03;;;3.65;;
7745;SDS011;3917;42.748;23.278;2022-08-19T15:15:13;5.93;;;3.15;;
7745;SDS011;3917;42.748;23.278;2022-08-19T15:17:42;5.72;;;3.22;;
7745;SDS011;3917;42.748;23.278;2022-08-19T15:20:10;12.55;;;3.70;;
7745;SDS011;3917;42.748;23.278;2022-08-19T15:22:38;9.45;;;4.53;;
7745;SDS011;3917;42.748;23.278;2022-08-19T15:25:07;6.10;;;3.72;;
7745;SDS011;3917;42.748;23.278;2022-08-19T15:27:37;8.75;;;4.00;;
7745;SDS011;3917;42.748;23.278;2022-08-19T15:30:08;10.38;;;4.20;;
7745;SDS011;3917;42.748;23.278;2022-08-19T15:32:38;7.70;;;3.47;;
7745;SDS011;3917;42.748;23.278;2022-08-19T15:35:08;11.93;;;4.40;;
7745;SDS011;3917;42.748;23.278;2022-08-19T15:37:38;27.42;;;6.10;;
7745;SDS011;3917;42.748;23.278;2022-08-19T15:40:05;10.95;;;3.95;;
7745;SDS011;3917;42.748;23.278;2022-08-19T15:42:34;7.85;;;4.40;;
7745;SDS011;3917;42.748;23.278;2022-08-19T15:45:10;11.30;;;4.10;;
7745;SDS011;3917;42.748;23.278;2022-08-19T15:47:39;6.85;;;3.97;;
7745;SDS011;3917;42.748;23.278;2022-08-19T15:50:06;8.63;;;4.38;;
7745;SDS011;3917;42.748;23.278;2022-08-19T15:52:34;15.75;;;5.05;;
7745;SDS011;3917;42.748;23.278;2022-08-19T15:55:03;9.23;;;3.80;;
7745;SDS011;3917;42.748;23.278;2022-08-19T15:57:32;11.00;;;4.88;;
7745;SDS011;3917;42.748;23.278;2022-08-19T16:00:18;12.88;;;4.93;;
7745;SDS011;3917;42.748;23.278;2022-08-19T16:03:02;6.82;;;4.00;;
7745;SDS011;3917;42.748;23.278;2022-08-19T16:05:46;4.88;;;4.00;;
7745;SDS011;3917;42.748;23.278;2022-08-19T16:08:32;11.55;;;4.60;;
7745;SDS011;3917;42.748;23.278;2022-08-19T16:11:04;7.75;;;4.22;;
7745;SDS011;3917;42.748;23.278;2022-08-19T16:13:37;11.38;;;4.70;;
7745;SDS011;3917;42.748;23.278;2022-08-19T16:16:06;11.52;;;4.60;;
7745;SDS011;3917;42.748;23.278;2022-08-19T16:18:33;8.65;;;4.30;;
7745;SDS011;3917;42.748;23.278;2022-08-19T16:21:02;8.13;;;3.97;;
7745;SDS011;3917;42.748;23.278;2022-08-19T16:23:32;13.23;;;4.10;;
7745;SDS011;3917;42.748;23.278;2022-08-19T16:25:59;12.95;;;4.90;;
7745;SDS011;3917;42.748;23.278;2022-08-19T16:28:27;10.30;;;4.57;;
7745;SDS011;3917;42.748;23.278;2022-08-19T16:30:53;6.60;;;4.30;;
7745;SDS011;3917;42.748;23.278;2022-08-19T16:33:25;8.18;;;4.03;;
7745;SDS011;3917;42.748;23.278;2022-08-19T16:35:51;13.30;;;4.40;;
7745;SDS011;3917;42.748;23.278;2022-08-19T16:38:18;7.03;;;3.92;;
7745;SDS011;3917;42.748;23.278;2022-08-19T16:40:45;7.38;;;4.25;;
7745;SDS011;3917;42.748;23.278;2022-08-19T16:43:13;13.85;;;3.80;;
7745;SDS011;3917;42.748;23.278;2022-08-19T16:45:40;10.25;;;3.83;;
7745;SDS011;3917;42.748;23.278;2022-08-19T16:48:06;15.85;;;4.95;;
7745;SDS011;3917;42.748;23.278;2022-08-19T16:50:35;9.70;;;3.83;;
7745;SDS011;3917;42.748;23.278;2022-08-19T16:53:02;9.73;;;4.20;;
7745;SDS011;3917;42.748;23.278;2022-08-19T16:55:31;7.00;;;3.85;;
7745;SDS011;3917;42.748;23.278;2022-08-19T16:57:58;11.90;;;4.78;;
7745;SDS011;3917;42.748;23.278;2022-08-19T17:00:28;9.82;;;4.40;;
7745;SDS011;3917;42.748;23.278;2022-08-19T17:02:55;9.10;;;4.10;;
7745;SDS011;3917;42.748;23.278;2022-08-19T17:05:22;5.95;;;3.85;;
7745;SDS011;3917;42.748;23.278;2022-08-19T17:07:50;6.95;;;3.88;;
7745;SDS011;3917;42.748;23.278;2022-08-19T17:10:17;6.50;;;4.47;;
7745;SDS011;3917;42.748;23.278;2022-08-19T17:12:44;7.70;;;4.00;;
7745;SDS011;3917;42.748;23.278;2022-08-19T17:15:11;8.65;;;4.50;;
7745;SDS011;3917;42.748;23.278;2022-08-19T17:17:38;6.43;;;3.90;;
7745;SDS011;3917;42.748;23.278;2022-08-19T17:20:05;12.75;;;4.13;;
7745;SDS011;3917;42.748;23.278;2022-08-19T17:22:33;5.78;;;3.88;;
7745;SDS011;3917;42.748;23.278;2022-08-19T17:25:02;9.15;;;4.25;;
7745;SDS011;3917;42.748;23.278;2022-08-19T17:27:29;6.20;;;3.85;;
7745;SDS011;3917;42.748;23.278;2022-08-19T17:29:56;7.68;;;4.35;;
7745;SDS011;3917;42.748;23.278;2022-08-19T17:32:24;8.80;;;4.45;;
7745;SDS011;3917;42.748;23.278;2022-08-19T17:34:52;10.75;;;4.45;;
7745;SDS011;3917;42.748;23.278;2022-08-19T17:37:19;13.30;;;4.45;;
7745;SDS011;3917;42.748;23.278;2022-08-19T17:39:46;9.40;;;4.25;;
7745;SDS011;3917;42.748;23.278;2022-08-19T17:42:14;7.13;;;4.55;;
7745;SDS011;3917;42.748;23.278;2022-08-19T17:44:41;10.35;;;4.43;;
7745;SDS011;3917;42.748;23.278;2022-08-19T17:47:08;7.05;;;4.60;;
7745;SDS011;3917;42.748;23.278;2022-08-19T17:49:36;5.47;;;4.10;;
7745;SDS011;3917;42.748;23.278;2022-08-19T17:52:03;15.23;;;4.82;;
7745;SDS011;3917;42.748;23.278;2022-08-19T17:54:30;7.43;;;4.38;;
7745;SDS011;3917;42.748;23.278;2022-08-19T17:56:57;6.68;;;3.58;;
7745;SDS011;3917;42.748;23.278;2022-08-19T17:59:25;5.95;;;3.95;;
7745;SDS011;3917;42.748;23.278;2022-08-19T18:01:52;7.20;;;4.25;;
7745;SDS011;3917;42.748;23.278;2022-08-19T18:04:19;7.50;;;3.63;;
7745;SDS011;3917;42.748;23.278;2022-08-19T18:06:46;9.55;;;4.20;;
7745;SDS011;3917;42.748;23.278;2022-08-19T18:09:13;10.77;;;4.47;;
7745;SDS011;3917;42.748;23.278;2022-08-19T18:11:40;6.53;;;4.38;;
7745;SDS011;3917;42.748;23.278;2022-08-19T18:14:08;5.30;;;4.22;;
7745;SDS011;3917;42.748;23.278;2022-08-19T18:16:38;11.57;;;4.20;;
7745;SDS011;3917;42.748;23.278;2022-08-19T18:19:05;8.25;;;4.60;;
7745;SDS011;3917;42.748;23.278;2022-08-19T18:21:32;9.85;;;5.22;;
7745;SDS011;3917;42.748;23.278;2022-08-19T18:24:00;14.57;;;5.43;;
7745;SDS011;3917;42.748;23.278;2022-08-19T18:26:27;8.48;;;4.72;;
7745;SDS011;3917;42.748;23.278;2022-08-19T18:28:54;9.90;;;5.45;;
7745;SDS011;3917;42.748;23.278;2022-08-19T18:31:21;6.63;;;4.82;;
7745;SDS011;3917;42.748;23.278;2022-08-19T18:33:49;11.27;;;5.25;;
7745;SDS011;3917;42.748;23.278;2022-08-19T18:36:18;9.55;;;5.25;;
7745;SDS011;3917;42.748;23.278;2022-08-19T18:38:45;10.57;;;5.65;;
7745;SDS011;3917;42.748;23.278;2022-08-19T18:41:30;9.02;;;5.20;;
7745;SDS011;3917;42.748;23.278;2022-08-19T18:44:14;15.48;;;5.75;;
7745;SDS011;3917;42.748;23.278;2022-08-19T18:46:58;11.88;;;6.05;;
7745;SDS011;3917;42.748;23.278;2022-08-19T18:49:43;13.23;;;6.05;;
7745;SDS011;3917;42.748;23.278;2022-08-19T18:52:10;9.35;;;5.30;;
7745;SDS011;3917;42.748;23.278;2022-08-19T18:54:37;10.20;;;5.07;;